Battle Harbour, Canada
Current Conditions -  °F | °C
As of 4:00 AM on Monday 24 Nov 2014 (Local Time) from CYMH Reporting Station
Clear Clear  
Wind Chill: -3°   Ceiling: Unl
Heat Index: 14°   Visibility: 9mi
Dew Point:   Wind: 20mph
Humidity: 67%   Direction: 270°W
Pressure: 30.01"   Gusts: 29mph
Location:  52.27°N, 55.58°W
Report Text: CYMH 240800Z AUTO 27017G25KT 9SM CLR M10/M15 A3001 RMK SLP162
Loading
Personal Weather Stations






























Interactive Weather Map New forecast layout! Learn more

10-Day Weather Forecast

Advertisements
Track Severe Weather on mobile